createdAt,value
2017-10-28T00:00:03.568Z,1027.6
2017-10-28T00:01:05.603Z,1027.5
2017-10-28T00:02:07.592Z,1027.5
2017-10-28T00:03:09.688Z,1027.5
2017-10-28T00:04:12.439Z,1027.5
2017-10-28T00:05:14.462Z,1027.5
2017-10-28T00:06:16.450Z,1027.6
2017-10-28T00:07:18.533Z,1027.5
2017-10-28T00:08:20.529Z,1027.6
2017-10-28T00:09:22.591Z,1027.5
2017-10-28T00:10:24.644Z,1027.5
2017-10-28T00:11:26.673Z,1027.5
2017-10-28T00:12:28.625Z,1027.5
2017-10-28T00:13:30.703Z,1027.5
2017-10-28T00:14:33.495Z,1027.4
2017-10-28T00:15:35.537Z,1027.4
2017-10-28T00:16:37.510Z,1027.4
2017-10-28T00:17:39.619Z,1027.4
2017-10-28T00:18:41.703Z,1027.4
2017-10-28T00:19:43.708Z,1027.3
2017-10-28T00:20:45.816Z,1027.3
2017-10-28T00:21:47.786Z,1027.3
2017-10-28T00:22:49.664Z,1027.3
2017-10-28T00:23:51.542Z,1027.3
2017-10-28T00:24:53.546Z,1027.3
2017-10-28T00:25:55.532Z,1027.3
2017-10-28T00:26:57.478Z,1027.3
2017-10-28T00:27:59.558Z,1027.3
2017-10-28T00:29:01.600Z,1027.3
2017-10-28T00:30:03.749Z,1027.3
2017-10-28T00:31:05.724Z,1027.3
2017-10-28T00:32:07.724Z,1027.3
2017-10-28T00:33:09.671Z,1027.2
2017-10-28T00:34:11.652Z,1027.2
2017-10-28T00:35:13.718Z,1027.2
2017-10-28T00:36:15.688Z,1027.2
2017-10-28T00:37:17.639Z,1027.2
2017-10-28T00:38:19.709Z,1027.2
2017-10-28T00:39:21.794Z,1027.1
2017-10-28T00:40:23.845Z,1027.1
2017-10-28T00:41:25.776Z,1027.1
2017-10-28T00:42:27.762Z,1027.0
2017-10-28T00:43:29.675Z,1027.1
2017-10-28T00:44:31.645Z,1027.0
2017-10-28T00:45:33.620Z,1027.0
2017-10-28T00:46:35.598Z,1027.0
2017-10-28T00:47:37.581Z,1027.0
2017-10-28T00:48:39.544Z,1026.9
2017-10-28T00:49:41.478Z,1026.9
2017-10-28T00:50:43.524Z,1026.9
2017-10-28T00:51:45.497Z,1026.9
2017-10-28T00:52:47.481Z,1027.0
2017-10-28T00:53:49.485Z,1026.9
2017-10-28T00:54:51.468Z,1026.9
2017-10-28T00:55:53.467Z,1026.9
2017-10-28T00:56:55.471Z,1026.8
2017-10-28T00:57:57.594Z,1026.8
2017-10-28T00:58:59.638Z,1026.8
2017-10-28T01:00:01.700Z,1026.8
2017-10-28T01:01:03.648Z,1026.8
2017-10-28T01:02:05.648Z,1026.7
2017-10-28T01:03:07.693Z,1026.7
2017-10-28T01:04:09.615Z,1026.7
2017-10-28T01:05:11.601Z,1026.7
2017-10-28T01:06:13.578Z,1026.7
2017-10-28T01:07:15.664Z,1026.6
2017-10-28T01:08:17.685Z,1026.7
2017-10-28T01:09:19.692Z,1026.6
2017-10-28T01:10:21.636Z,1026.6
2017-10-28T01:11:23.637Z,1026.6
2017-10-28T01:12:25.569Z,1026.6
2017-10-28T01:13:27.660Z,1026.6
2017-10-28T01:14:29.675Z,1026.6
2017-10-28T01:15:31.657Z,1026.5
2017-10-28T01:16:33.663Z,1026.5
2017-10-28T01:17:35.668Z,1026.5
2017-10-28T01:18:37.659Z,1026.5
2017-10-28T01:19:39.615Z,1026.5
2017-10-28T01:20:41.673Z,1026.5
2017-10-28T01:21:43.631Z,1026.4
2017-10-28T01:22:45.580Z,1026.5
2017-10-28T01:23:47.555Z,1026.4
2017-10-28T01:24:49.461Z,1026.4
2017-10-28T01:25:51.357Z,1026.4
2017-10-28T01:26:53.294Z,1026.4
2017-10-28T01:27:55.169Z,1026.4
2017-10-28T01:28:57.101Z,1026.4
2017-10-28T01:29:59.045Z,1026.4
2017-10-28T01:31:01.033Z,1026.3
2017-10-28T01:32:03.050Z,1026.4
2017-10-28T01:33:05.093Z,1026.3
2017-10-28T01:34:07.074Z,1026.3
2017-10-28T01:35:09.011Z,1026.2
2017-10-28T01:36:11.099Z,1026.2
2017-10-28T01:37:13.117Z,1026.2
2017-10-28T01:38:15.187Z,1026.1
2017-10-28T01:39:17.210Z,1026.1
2017-10-28T01:40:19.358Z,1026.1
2017-10-28T01:41:21.459Z,1026.0
2017-10-28T01:42:23.447Z,1026.1
2017-10-28T01:43:25.416Z,1026.1
2017-10-28T01:44:27.486Z,1026.0
2017-10-28T01:45:29.657Z,1026.0
2017-10-28T01:46:31.675Z,1025.9
2017-10-28T01:47:33.665Z,1025.9
2017-10-28T01:48:35.750Z,1025.9
2017-10-28T01:49:37.811Z,1025.8
2017-10-28T01:50:39.938Z,1025.8
2017-10-28T01:51:42.002Z,1025.8
2017-10-28T01:52:44.152Z,1025.7
2017-10-28T01:53:46.247Z,1025.7
2017-10-28T01:54:48.174Z,1025.7
2017-10-28T01:55:50.090Z,1025.7
2017-10-28T01:56:52.150Z,1025.6
2017-10-28T01:57:54.213Z,1025.6
2017-10-28T01:58:56.350Z,1025.6
2017-10-28T01:59:58.292Z,1025.6
2017-10-28T02:01:00.275Z,1025.5
2017-10-28T02:02:02.364Z,1025.5
2017-10-28T02:03:04.407Z,1025.5
2017-10-28T02:04:06.413Z,1025.5
2017-10-28T02:05:08.465Z,1025.5
2017-10-28T02:06:10.568Z,1025.4
2017-10-28T02:07:12.599Z,1025.4
2017-10-28T02:08:14.524Z,1025.4
2017-10-28T02:09:16.713Z,1025.3
2017-10-28T02:10:18.785Z,1025.3
2017-10-28T02:11:20.863Z,1025.3
2017-10-28T02:12:22.820Z,1025.3
2017-10-28T02:13:24.989Z,1025.2
2017-10-28T02:14:26.973Z,1025.2
2017-10-28T02:15:28.934Z,1025.2
2017-10-28T02:16:30.871Z,1025.2
2017-10-28T02:17:32.975Z,1025.1
2017-10-28T02:18:34.995Z,1025.1
2017-10-28T02:19:37.094Z,1025.1
2017-10-28T02:20:39.177Z,1025.1
2017-10-28T02:21:41.927Z,1025.0
2017-10-28T02:22:43.197Z,1025.0
2017-10-28T02:23:45.278Z,1025.0
2017-10-28T02:24:47.318Z,1025.0
2017-10-28T02:25:49.365Z,1024.9
2017-10-28T02:26:51.543Z,1024.9
2017-10-28T02:27:53.567Z,1024.9
2017-10-28T02:28:55.531Z,1024.9
2017-10-28T02:29:57.525Z,1024.9
2017-10-28T02:30:59.480Z,1024.9
2017-10-28T02:32:01.587Z,1024.9
2017-10-28T02:33:03.680Z,1024.8
2017-10-28T02:34:05.700Z,1024.9
2017-10-28T02:35:07.904Z,1024.9
2017-10-28T02:36:09.890Z,1024.8
2017-10-28T02:37:11.906Z,1024.9
2017-10-28T02:38:13.968Z,1024.9
2017-10-28T02:39:16.015Z,1025.0
2017-10-28T02:40:18.147Z,1025.0
2017-10-28T02:41:20.357Z,1024.9
2017-10-28T02:42:22.461Z,1024.9
2017-10-28T02:43:25.054Z,1024.9
2017-10-28T02:44:27.195Z,1024.9
2017-10-28T02:45:29.252Z,1024.8
2017-10-28T02:46:31.420Z,1024.8
2017-10-28T02:47:33.467Z,1024.8
2017-10-28T02:48:35.561Z,1024.9
2017-10-28T02:49:37.675Z,1024.7
2017-10-28T02:50:40.397Z,1024.7
2017-10-28T02:51:42.723Z,1024.7
2017-10-28T02:52:44.681Z,1024.7
2017-10-28T02:53:46.803Z,1024.7
2017-10-28T02:54:48.835Z,1024.6
2017-10-28T02:55:50.857Z,1024.6
2017-10-28T02:56:52.876Z,1024.6
2017-10-28T02:57:55.019Z,1024.6
2017-10-28T02:58:57.048Z,1024.5
2017-10-28T02:59:59.170Z,1024.5
2017-10-28T03:01:01.199Z,1024.4
2017-10-28T03:02:03.168Z,1024.4
2017-10-28T03:03:05.200Z,1024.5
2017-10-28T03:04:08.463Z,1024.5
2017-10-28T03:05:11.431Z,1024.4
2017-10-28T03:06:12.871Z,1024.4
2017-10-28T03:07:14.847Z,1024.4
2017-10-28T03:08:17.366Z,1024.3
2017-10-28T03:09:19.369Z,1024.2
2017-10-28T03:10:21.367Z,1024.2
2017-10-28T03:11:23.417Z,1024.2
2017-10-28T03:12:25.432Z,1024.2
2017-10-28T03:13:27.403Z,1024.2
2017-10-28T03:14:29.403Z,1024.2
2017-10-28T03:15:31.426Z,1024.2
2017-10-28T03:16:33.426Z,1024.1
2017-10-28T03:17:35.445Z,1024.1
2017-10-28T03:18:37.564Z,1024.1
2017-10-28T03:19:39.625Z,1024.2
2017-10-28T03:20:41.540Z,1024.1
2017-10-28T03:21:43.609Z,1024.1
2017-10-28T03:22:45.525Z,1024.1
2017-10-28T03:23:47.578Z,1024.1
2017-10-28T03:24:49.536Z,1024.2
2017-10-28T03:25:51.535Z,1024.2
2017-10-28T03:26:53.590Z,1024.1
2017-10-28T03:27:55.545Z,1024.1
2017-10-28T03:28:57.514Z,1024.0
2017-10-28T03:29:59.520Z,1024.0
2017-10-28T03:31:01.579Z,1023.9
2017-10-28T03:32:03.562Z,1023.9
2017-10-28T03:33:05.594Z,1023.8
2017-10-28T03:34:07.673Z,1023.9
2017-10-28T03:35:09.635Z,1023.8
2017-10-28T03:36:11.612Z,1023.7
2017-10-28T03:37:13.736Z,1023.6
2017-10-28T03:38:15.687Z,1023.6
2017-10-28T03:39:17.688Z,1023.5
2017-10-28T03:40:19.684Z,1023.4
2017-10-28T03:41:21.640Z,1023.4
2017-10-28T03:42:23.637Z,1023.4
2017-10-28T03:43:25.603Z,1023.3
2017-10-28T03:44:27.498Z,1023.4
2017-10-28T03:45:29.546Z,1023.4
2017-10-28T03:46:31.546Z,1023.2
2017-10-28T03:47:33.440Z,1023.3
2017-10-28T03:48:35.413Z,1023.4
2017-10-28T03:49:37.324Z,1023.4
2017-10-28T03:50:39.382Z,1023.4
2017-10-28T03:51:41.378Z,1023.3
2017-10-28T03:52:43.317Z,1023.3
2017-10-28T03:53:46.085Z,1023.3
2017-10-28T03:54:48.146Z,1023.4
2017-10-28T03:55:50.133Z,1023.4
2017-10-28T03:56:52.105Z,1023.4
2017-10-28T03:57:54.195Z,1023.4
2017-10-28T03:58:56.444Z,1023.4
2017-10-28T03:59:58.626Z,1023.4
2017-10-28T04:01:01.489Z,1023.5
2017-10-28T04:02:03.530Z,1023.4
2017-10-28T04:03:05.739Z,1023.4
2017-10-28T04:04:07.803Z,1023.4
2017-10-28T04:05:09.940Z,1023.4
2017-10-28T04:06:11.895Z,1023.4
2017-10-28T04:07:13.859Z,1023.4
2017-10-28T04:08:15.890Z,1023.4
2017-10-28T04:09:18.049Z,1023.4
2017-10-28T04:10:20.076Z,1023.4
2017-10-28T04:11:22.226Z,1023.4
2017-10-28T04:12:25.062Z,1023.4
2017-10-28T04:13:27.239Z,1023.4
2017-10-28T04:14:29.261Z,1023.4
2017-10-28T04:15:31.376Z,1023.4
2017-10-28T04:16:33.431Z,1023.4
2017-10-28T04:17:35.532Z,1023.4
2017-10-28T04:18:37.515Z,1023.4
2017-10-28T04:19:39.634Z,1023.4
2017-10-28T04:20:41.646Z,1023.4
2017-10-28T04:21:43.659Z,1023.4
2017-10-28T04:22:46.419Z,1023.5
2017-10-28T04:23:48.402Z,1023.5
2017-10-28T04:24:50.585Z,1023.5
2017-10-28T04:25:52.541Z,1023.5
2017-10-28T04:26:54.458Z,1023.5
2017-10-28T04:27:56.536Z,1023.5
2017-10-28T04:28:58.548Z,1023.5
2017-10-28T04:30:00.542Z,1023.5
2017-10-28T04:31:02.595Z,1023.5
2017-10-28T04:32:04.591Z,1023.5
2017-10-28T04:33:06.661Z,1023.5
2017-10-28T04:34:08.633Z,1023.4
2017-10-28T04:35:10.574Z,1023.4
2017-10-28T04:36:12.631Z,1023.5
2017-10-28T04:37:14.579Z,1023.4
2017-10-28T04:38:16.519Z,1023.4
2017-10-28T04:39:18.476Z,1023.4
2017-10-28T04:40:20.746Z,1023.4
2017-10-28T04:41:22.774Z,1023.3
2017-10-28T04:42:24.830Z,1023.2
2017-10-28T04:43:26.967Z,1023.2
2017-10-28T04:44:28.973Z,1023.1
2017-10-28T04:45:31.193Z,1023.0
2017-10-28T04:46:33.146Z,1022.9
2017-10-28T04:47:35.165Z,1022.9
2017-10-28T04:48:37.148Z,1022.8
2017-10-28T04:49:39.385Z,1022.7
2017-10-28T04:50:41.422Z,1022.6
2017-10-28T04:51:43.381Z,1022.6
2017-10-28T04:52:45.417Z,1022.6
2017-10-28T04:53:47.523Z,1022.5
2017-10-28T04:54:49.600Z,1022.5
2017-10-28T04:55:51.595Z,1022.5
2017-10-28T04:56:53.622Z,1022.5
2017-10-28T04:57:55.612Z,1022.4
2017-10-28T04:58:57.730Z,1022.5
2017-10-28T04:59:59.755Z,1022.5
2017-10-28T05:01:01.738Z,1022.5
2017-10-28T05:02:03.789Z,1022.5
2017-10-28T05:03:05.792Z,1022.6
2017-10-28T05:04:07.780Z,1022.6
2017-10-28T05:05:09.740Z,1022.5
2017-10-28T05:06:11.715Z,1022.5
2017-10-28T05:07:14.536Z,1022.4
2017-10-28T05:08:16.309Z,1022.5
2017-10-28T05:09:18.347Z,1022.5
2017-10-28T05:10:20.341Z,1022.6
2017-10-28T05:11:22.360Z,1022.7
2017-10-28T05:12:24.383Z,1022.6
2017-10-28T05:13:26.325Z,1022.6
2017-10-28T05:14:28.313Z,1022.6
2017-10-28T05:15:30.342Z,1022.6
2017-10-28T05:16:32.406Z,1022.5
2017-10-28T05:17:34.410Z,1022.5
2017-10-28T05:18:36.442Z,1022.5
2017-10-28T05:19:38.316Z,1022.4
2017-10-28T05:20:40.312Z,1022.4
2017-10-28T05:21:42.146Z,1022.3
2017-10-28T05:22:44.203Z,1022.2
2017-10-28T05:23:46.096Z,1022.1
2017-10-28T05:24:48.061Z,1022.0
2017-10-28T05:25:50.097Z,1022.0
2017-10-28T05:26:52.101Z,1022.0
2017-10-28T05:27:54.135Z,1021.9
2017-10-28T05:28:56.078Z,1022.0
2017-10-28T05:29:58.026Z,1022.1
2017-10-28T05:31:00.011Z,1022.0
2017-10-28T05:32:02.078Z,1022.1
2017-10-28T05:33:03.812Z,1022.2
2017-10-28T05:34:05.663Z,1022.2
2017-10-28T05:35:07.563Z,1022.1
2017-10-28T05:36:09.535Z,1022.1
2017-10-28T05:37:11.553Z,1022.1
2017-10-28T05:38:13.522Z,1022.0
2017-10-28T05:39:15.520Z,1022.1
2017-10-28T05:40:17.471Z,1022.0
2017-10-28T05:41:19.404Z,1022.1
2017-10-28T05:42:21.323Z,1022.2
2017-10-28T05:43:24.018Z,1022.2
2017-10-28T05:44:26.040Z,1022.2
2017-10-28T05:45:27.948Z,1022.1
2017-10-28T05:46:29.878Z,1022.0
2017-10-28T05:47:31.748Z,1021.9
2017-10-28T05:48:33.763Z,1021.9
2017-10-28T05:49:35.701Z,1021.9
2017-10-28T05:50:37.810Z,1021.8
2017-10-28T05:51:39.763Z,1021.7
2017-10-28T05:52:42.092Z,1021.7
2017-10-28T05:53:44.030Z,1021.7
2017-10-28T05:54:46.103Z,1021.6
2017-10-28T05:55:47.819Z,1021.7
2017-10-28T05:56:49.664Z,1021.7
2017-10-28T05:57:51.354Z,1021.7
2017-10-28T05:58:52.998Z,1021.7
2017-10-28T05:59:54.720Z,1021.6
2017-10-28T06:00:56.438Z,1021.6
2017-10-28T06:01:58.004Z,1021.7
2017-10-28T06:03:00.001Z,1021.7
2017-10-28T06:04:01.871Z,1021.6
2017-10-28T06:05:03.573Z,1021.6
2017-10-28T06:06:05.459Z,1021.6
2017-10-28T06:07:07.229Z,1021.5
2017-10-28T06:08:09.345Z,1021.5
2017-10-28T06:09:10.981Z,1021.5
2017-10-28T06:10:12.624Z,1021.6
2017-10-28T06:11:14.557Z,1021.7
2017-10-28T06:12:16.366Z,1021.7
2017-10-28T06:13:17.967Z,1021.8
2017-10-28T06:14:19.728Z,1021.7
2017-10-28T06:15:21.419Z,1021.6
2017-10-28T06:16:23.069Z,1021.6
2017-10-28T06:17:24.869Z,1021.6
2017-10-28T06:18:26.789Z,1021.6
2017-10-28T06:19:28.594Z,1021.6
2017-10-28T06:20:30.417Z,1021.5
2017-10-28T06:21:32.179Z,1021.5
2017-10-28T06:22:33.884Z,1021.5
2017-10-28T06:23:35.723Z,1021.6
2017-10-28T06:24:37.474Z,1021.6
2017-10-28T06:25:39.201Z,1021.6
2017-10-28T06:26:40.951Z,1021.6
2017-10-28T06:27:42.652Z,1021.6
2017-10-28T06:28:44.494Z,1021.5
2017-10-28T06:29:46.235Z,1021.5
2017-10-28T06:30:48.037Z,1021.5
2017-10-28T06:31:49.868Z,1021.6
2017-10-28T06:32:51.538Z,1021.6
2017-10-28T06:33:53.124Z,1021.6
2017-10-28T06:34:54.871Z,1021.6
2017-10-28T06:35:56.710Z,1021.6
2017-10-28T06:36:58.588Z,1021.6
2017-10-28T06:38:00.313Z,1021.5
2017-10-28T06:39:02.070Z,1021.5
2017-10-28T06:40:03.791Z,1021.5
2017-10-28T06:41:05.804Z,1021.5
2017-10-28T06:42:07.415Z,1021.5
2017-10-28T06:43:09.396Z,1021.5
2017-10-28T06:44:11.020Z,1021.6
2017-10-28T06:45:12.879Z,1021.6
2017-10-28T06:46:14.605Z,1021.6
2017-10-28T06:47:16.364Z,1021.6
2017-10-28T06:48:18.065Z,1021.5
2017-10-28T06:49:19.832Z,1021.6
2017-10-28T06:50:21.652Z,1021.5
2017-10-28T06:51:23.522Z,1021.5
2017-10-28T06:52:25.488Z,1021.6
2017-10-28T06:53:27.157Z,1021.5
2017-10-28T06:54:28.978Z,1021.4
2017-10-28T06:55:30.746Z,1021.5
2017-10-28T06:56:32.651Z,1021.5
2017-10-28T06:57:34.423Z,1021.4
2017-10-28T06:58:36.291Z,1021.4
2017-10-28T06:59:38.087Z,1021.3
2017-10-28T07:00:40.011Z,1021.4
2017-10-28T07:01:41.758Z,1021.4
2017-10-28T07:02:43.649Z,1021.5
2017-10-28T07:03:45.563Z,1021.4
2017-10-28T07:04:47.459Z,1021.5
2017-10-28T07:05:49.117Z,1021.4
2017-10-28T07:06:51.147Z,1021.4
2017-10-28T07:07:53.254Z,1021.4
2017-10-28T07:08:55.062Z,1021.4
2017-10-28T07:09:57.097Z,1021.4
2017-10-28T07:10:59.052Z,1021.4
2017-10-28T07:12:00.673Z,1021.4
2017-10-28T07:13:02.614Z,1021.3
2017-10-28T07:14:04.350Z,1021.4
2017-10-28T07:15:06.719Z,1021.4
2017-10-28T07:16:08.630Z,1021.5
2017-10-28T07:17:10.440Z,1021.5
2017-10-28T07:18:12.400Z,1021.6
2017-10-28T07:19:14.385Z,1021.6
2017-10-28T07:20:16.228Z,1021.5
2017-10-28T07:21:18.002Z,1021.4
2017-10-28T07:22:19.769Z,1021.5
2017-10-28T07:23:21.555Z,1021.5
2017-10-28T07:24:23.357Z,1021.6
2017-10-28T07:25:25.313Z,1021.6
2017-10-28T07:26:27.035Z,1021.6
2017-10-28T07:27:28.896Z,1021.6
2017-10-28T07:28:30.952Z,1021.6
2017-10-28T07:29:32.751Z,1021.6
2017-10-28T07:30:34.583Z,1021.6
2017-10-28T07:31:36.365Z,1021.5
2017-10-28T07:32:38.129Z,1021.4
2017-10-28T07:33:39.856Z,1021.3
2017-10-28T07:34:41.523Z,1021.1
2017-10-28T07:35:43.141Z,1021.0
2017-10-28T07:36:44.744Z,1020.9
2017-10-28T07:37:46.386Z,1020.9
2017-10-28T07:38:48.029Z,1020.9
2017-10-28T07:39:49.646Z,1020.9
2017-10-28T07:40:51.413Z,1020.9
2017-10-28T07:41:53.051Z,1020.9
2017-10-28T07:42:54.928Z,1020.9
2017-10-28T07:43:56.855Z,1020.9
2017-10-28T07:45:00.454Z,1021.0
2017-10-28T07:46:02.100Z,1021.0
2017-10-28T07:47:03.874Z,1021.0
2017-10-28T07:48:05.617Z,1021.0
2017-10-28T07:49:07.348Z,1021.0
2017-10-28T07:50:09.044Z,1020.9
2017-10-28T07:51:10.733Z,1021.0
2017-10-28T07:52:12.423Z,1021.0
2017-10-28T07:53:14.079Z,1020.9
2017-10-28T07:54:15.823Z,1020.9
2017-10-28T07:55:17.619Z,1021.0
2017-10-28T07:56:19.315Z,1021.1
2017-10-28T07:57:21.139Z,1021.2
2017-10-28T07:58:22.963Z,1021.3
2017-10-28T07:59:24.632Z,1021.3
2017-10-28T08:00:26.360Z,1021.4
2017-10-28T08:01:28.120Z,1021.4
2017-10-28T08:02:30.023Z,1021.5
2017-10-28T08:03:31.863Z,1021.5
2017-10-28T08:04:33.679Z,1021.6
2017-10-28T08:05:35.457Z,1021.6
2017-10-28T08:06:37.253Z,1021.5
2017-10-28T08:07:38.990Z,1021.5
2017-10-28T08:08:40.752Z,1021.6
2017-10-28T08:09:42.459Z,1021.6
2017-10-28T08:10:44.371Z,1021.6
2017-10-28T08:11:46.130Z,1021.6
2017-10-28T08:12:47.868Z,1021.6
2017-10-28T08:13:49.708Z,1021.5
2017-10-28T08:14:51.576Z,1021.5
2017-10-28T08:15:53.208Z,1021.4
2017-10-28T08:16:54.833Z,1021.4
2017-10-28T08:17:56.646Z,1021.4
2017-10-28T08:18:58.337Z,1021.4
2017-10-28T08:20:00.026Z,1021.5
2017-10-28T08:21:01.753Z,1021.4
2017-10-28T08:22:03.404Z,1021.4
2017-10-28T08:23:05.104Z,1021.3
2017-10-28T08:24:06.771Z,1021.3
2017-10-28T08:25:08.429Z,1021.3
2017-10-28T08:26:10.033Z,1021.3
2017-10-28T08:27:11.701Z,1021.3
2017-10-28T08:28:13.430Z,1021.3
2017-10-28T08:29:15.061Z,1021.3
2017-10-28T08:30:16.727Z,1021.3
2017-10-28T08:31:18.408Z,1021.4
2017-10-28T08:32:20.090Z,1021.3
2017-10-28T08:33:21.755Z,1021.3
2017-10-28T08:34:23.378Z,1021.3
2017-10-28T08:35:25.084Z,1021.3
2017-10-28T08:36:27.111Z,1021.4
2017-10-28T08:37:29.040Z,1021.3
2017-10-28T08:38:30.909Z,1021.2
2017-10-28T08:39:32.605Z,1021.2
2017-10-28T08:40:34.298Z,1021.1
2017-10-28T08:41:35.962Z,1021.1
2017-10-28T08:42:37.637Z,1021.1
2017-10-28T08:43:39.269Z,1021.0
2017-10-28T08:44:40.916Z,1021.0
2017-10-28T08:45:42.533Z,1021.0
2017-10-28T08:46:44.277Z,1021.0
2017-10-28T08:47:45.972Z,1020.9
2017-10-28T08:48:47.739Z,1020.9
2017-10-28T08:49:49.449Z,1020.9
2017-10-28T08:50:51.190Z,1020.9
2017-10-28T08:51:52.866Z,1020.9
2017-10-28T08:52:54.544Z,1021.0
2017-10-28T08:53:56.288Z,1021.0
2017-10-28T08:54:57.964Z,1021.0
2017-10-28T08:55:59.669Z,1021.0
2017-10-28T08:57:01.335Z,1021.0
2017-10-28T08:58:02.968Z,1020.9
2017-10-28T08:59:04.618Z,1020.9
2017-10-28T09:00:06.349Z,1020.9
2017-10-28T09:01:08.016Z,1020.9
2017-10-28T09:02:09.614Z,1020.9
2017-10-28T09:03:11.498Z,1020.8
2017-10-28T09:04:13.392Z,1020.8
2017-10-28T09:05:15.261Z,1020.8
2017-10-28T09:06:16.969Z,1020.8
2017-10-28T09:07:18.663Z,1020.7
2017-10-28T09:08:20.313Z,1020.7
2017-10-28T09:09:21.982Z,1020.7
2017-10-28T09:10:23.613Z,1020.6
2017-10-28T09:11:25.371Z,1020.6
2017-10-28T09:12:27.056Z,1020.6
2017-10-28T09:13:28.689Z,1020.5
2017-10-28T09:14:30.358Z,1020.6
2017-10-28T09:15:32.041Z,1020.6
2017-10-28T09:16:33.673Z,1020.5
2017-10-28T09:17:35.320Z,1020.5
2017-10-28T09:18:36.947Z,1020.5
2017-10-28T09:19:38.618Z,1020.5
2017-10-28T09:20:40.355Z,1020.5
2017-10-28T09:21:42.023Z,1020.6
2017-10-28T09:22:43.716Z,1020.6
2017-10-28T09:23:45.443Z,1020.5
2017-10-28T09:24:47.305Z,1020.5
2017-10-28T09:25:49.022Z,1020.5
2017-10-28T09:26:50.667Z,1020.5
2017-10-28T09:27:52.373Z,1020.4
2017-10-28T09:28:54.059Z,1020.4
2017-10-28T09:29:55.942Z,1020.4
2017-10-28T09:30:57.561Z,1020.3
2017-10-28T09:31:59.262Z,1020.3
2017-10-28T09:33:00.896Z,1020.3
2017-10-28T09:34:02.523Z,1020.4
2017-10-28T09:35:04.215Z,1020.3
2017-10-28T09:36:05.802Z,1020.3
2017-10-28T09:37:07.475Z,1020.3
2017-10-28T09:38:09.175Z,1020.2
2017-10-28T09:39:10.888Z,1020.2
2017-10-28T09:40:12.592Z,1020.3
2017-10-28T09:41:14.491Z,1020.3
2017-10-28T09:42:16.411Z,1020.3
2017-10-28T09:43:18.281Z,1020.2
2017-10-28T09:44:20.297Z,1020.2
2017-10-28T09:45:21.920Z,1020.2
2017-10-28T09:46:23.637Z,1020.2
2017-10-28T09:47:25.345Z,1020.2
2017-10-28T09:48:26.947Z,1020.2
2017-10-28T09:49:28.617Z,1020.1
2017-10-28T09:50:30.292Z,1020.2
2017-10-28T09:51:32.276Z,1020.3
2017-10-28T09:52:34.188Z,1020.2
2017-10-28T09:53:35.832Z,1020.3
2017-10-28T09:54:37.432Z,1020.3
2017-10-28T09:55:39.058Z,1020.2
2017-10-28T09:56:40.684Z,1020.2
2017-10-28T09:57:42.284Z,1020.2
2017-10-28T09:58:43.932Z,1020.3
2017-10-28T09:59:45.559Z,1020.3
2017-10-28T10:00:47.193Z,1020.3
2017-10-28T10:01:48.859Z,1020.2
2017-10-28T10:02:50.504Z,1020.1
2017-10-28T10:03:52.129Z,1020.1
2017-10-28T10:04:53.833Z,1020.1
2017-10-28T10:05:55.447Z,1020.1
2017-10-28T10:06:57.099Z,1020.1
2017-10-28T10:07:58.811Z,1020.1
2017-10-28T10:09:00.374Z,1020.1
2017-10-28T10:10:02.097Z,1020.2
2017-10-28T10:11:03.947Z,1020.2
2017-10-28T10:12:05.750Z,1020.2
2017-10-28T10:13:07.545Z,1020.2
2017-10-28T10:14:09.323Z,1020.2
2017-10-28T10:15:11.088Z,1020.1
2017-10-28T10:16:12.907Z,1020.2
2017-10-28T10:17:14.547Z,1020.3
2017-10-28T10:18:16.207Z,1020.2
2017-10-28T10:19:17.873Z,1020.1
2017-10-28T10:20:19.693Z,1020.1
2017-10-28T10:21:21.333Z,1020.2
2017-10-28T10:22:23.084Z,1020.0
2017-10-28T10:23:30.720Z,1020.2
2017-10-28T10:24:32.043Z,1020.1
2017-10-28T10:25:34.078Z,1020.1
2017-10-28T10:26:35.659Z,1020.1
2017-10-28T10:27:37.396Z,1020.1
2017-10-28T10:28:39.072Z,1020.1
2017-10-28T10:29:40.614Z,1020.1
2017-10-28T10:30:42.215Z,1020.1
2017-10-28T10:31:44.117Z,1020.0
2017-10-28T10:32:45.851Z,1020.1
2017-10-28T10:33:47.552Z,1020.0
2017-10-28T10:34:49.188Z,1020.0
2017-10-28T10:35:50.900Z,1019.9
2017-10-28T10:36:52.546Z,1019.9
2017-10-28T10:37:54.290Z,1019.8
2017-10-28T10:38:55.934Z,1019.8
2017-10-28T10:39:57.590Z,1019.7
2017-10-28T10:40:59.306Z,1019.6
2017-10-28T10:42:00.974Z,1019.6
2017-10-28T10:43:02.509Z,1019.6
2017-10-28T10:44:04.059Z,1019.5
2017-10-28T10:45:05.586Z,1019.5
2017-10-28T10:46:07.097Z,1019.5
2017-10-28T10:47:08.576Z,1019.5
2017-10-28T10:48:10.098Z,1019.5
2017-10-28T10:49:11.737Z,1019.5
2017-10-28T10:50:13.312Z,1019.5
2017-10-28T10:51:14.922Z,1019.5
2017-10-28T10:52:16.574Z,1019.5
2017-10-28T10:53:18.382Z,1019.5
2017-10-28T10:54:20.072Z,1019.5
2017-10-28T10:55:21.735Z,1019.4
2017-10-28T10:56:23.322Z,1019.4
2017-10-28T10:57:24.969Z,1019.4
2017-10-28T10:58:26.538Z,1019.4
2017-10-28T10:59:28.166Z,1019.4
2017-10-28T11:00:29.727Z,1019.3
2017-10-28T11:01:31.286Z,1019.2
2017-10-28T11:02:32.871Z,1019.2
2017-10-28T11:03:34.479Z,1019.2
2017-10-28T11:04:36.041Z,1019.2
2017-10-28T11:05:37.634Z,1019.1
2017-10-28T11:06:39.284Z,1019.2
2017-10-28T11:07:41.679Z,1019.1
2017-10-28T11:08:43.246Z,1019.1
2017-10-28T11:09:44.802Z,1019.1
2017-10-28T11:10:46.453Z,1019.1
2017-10-28T11:11:48.015Z,1019.0
2017-10-28T11:12:49.599Z,1019.0
2017-10-28T11:13:51.166Z,1019.0
2017-10-28T11:14:52.710Z,1019.1
2017-10-28T11:15:54.261Z,1019.1
2017-10-28T11:16:55.791Z,1019.1
2017-10-28T11:17:57.383Z,1019.1
2017-10-28T11:18:58.920Z,1019.1
2017-10-28T11:20:00.509Z,1019.1
2017-10-28T11:21:02.186Z,1019.1
2017-10-28T11:22:03.830Z,1019.1
2017-10-28T11:23:05.461Z,1019.1
2017-10-28T11:24:07.032Z,1019.1
2017-10-28T11:25:08.595Z,1019.1
2017-10-28T11:26:10.184Z,1019.1
2017-10-28T11:27:11.788Z,1019.1
2017-10-28T11:28:13.417Z,1019.0
2017-10-28T11:29:14.989Z,1019.0
2017-10-28T11:30:16.569Z,1019.0
2017-10-28T11:31:18.167Z,1018.9
2017-10-28T11:32:19.812Z,1018.9
2017-10-28T11:33:21.570Z,1018.9
2017-10-28T11:34:23.187Z,1018.9
2017-10-28T11:35:24.823Z,1018.9
2017-10-28T11:36:26.491Z,1018.9
2017-10-28T11:37:28.043Z,1018.8
2017-10-28T11:38:29.576Z,1018.7
2017-10-28T11:39:31.104Z,1018.7
2017-10-28T11:40:32.682Z,1018.6
2017-10-28T11:41:34.247Z,1018.6
2017-10-28T11:42:35.919Z,1018.6
2017-10-28T11:43:37.464Z,1018.5
2017-10-28T11:44:39.062Z,1018.6
2017-10-28T11:45:40.663Z,1018.5
2017-10-28T11:46:42.272Z,1018.5
2017-10-28T11:47:43.884Z,1018.6
2017-10-28T11:48:45.472Z,1018.5
2017-10-28T11:49:47.141Z,1018.5
2017-10-28T11:50:48.790Z,1018.5
2017-10-28T11:51:50.382Z,1018.6
2017-10-28T11:52:52.078Z,1018.5
2017-10-28T11:53:53.712Z,1018.5
2017-10-28T11:54:55.327Z,1018.5
2017-10-28T11:55:56.959Z,1018.5
2017-10-28T11:56:58.510Z,1018.5
2017-10-28T11:58:00.129Z,1018.5
2017-10-28T11:59:01.628Z,1018.5
2017-10-28T12:00:03.117Z,1018.4
2017-10-28T12:01:04.712Z,1018.5
2017-10-28T12:02:06.207Z,1018.4
2017-10-28T12:03:07.770Z,1018.3
2017-10-28T12:04:09.388Z,1018.3
2017-10-28T12:05:10.972Z,1018.3
2017-10-28T12:06:12.532Z,1018.2
2017-10-28T12:07:14.093Z,1018.2
2017-10-28T12:08:15.674Z,1018.2
2017-10-28T12:09:17.265Z,1018.2
2017-10-28T12:10:18.852Z,1018.1
2017-10-28T12:11:20.395Z,1018.1
2017-10-28T12:12:22.013Z,1018.1
2017-10-28T12:13:23.608Z,1018.1
2017-10-28T12:14:25.157Z,1018.1
2017-10-28T12:15:26.679Z,1018.0
2017-10-28T12:16:28.234Z,1017.9
2017-10-28T12:17:29.707Z,1017.8
2017-10-28T12:18:31.349Z,1017.8
2017-10-28T12:19:32.836Z,1017.7
2017-10-28T12:20:34.381Z,1017.7
2017-10-28T12:21:35.923Z,1017.7
2017-10-28T12:22:37.497Z,1017.7
2017-10-28T12:23:38.991Z,1017.7
2017-10-28T12:24:40.481Z,1017.7
2017-10-28T12:25:41.977Z,1017.7
2017-10-28T12:26:43.463Z,1017.6
2017-10-28T12:27:45.001Z,1017.6
2017-10-28T12:28:46.503Z,1017.6
2017-10-28T12:29:48.026Z,1017.6
2017-10-28T12:30:49.512Z,1017.6
2017-10-28T12:31:51.096Z,1017.7
2017-10-28T12:32:52.694Z,1017.7
2017-10-28T12:33:54.274Z,1017.7
2017-10-28T12:34:55.778Z,1017.7
2017-10-28T12:35:57.393Z,1017.7
2017-10-28T12:36:58.969Z,1017.6
2017-10-28T12:38:00.592Z,1017.6
2017-10-28T12:39:02.170Z,1017.6
2017-10-28T12:40:03.814Z,1017.6
2017-10-28T12:41:05.467Z,1017.5
2017-10-28T12:42:07.032Z,1017.5
2017-10-28T12:43:08.598Z,1017.4
2017-10-28T12:44:10.140Z,1017.4
2017-10-28T12:45:11.682Z,1017.3
2017-10-28T12:46:13.256Z,1017.3
2017-10-28T12:47:14.941Z,1017.3
2017-10-28T12:48:16.494Z,1017.2
2017-10-28T12:49:18.048Z,1017.1
2017-10-28T12:50:19.591Z,1017.2
2017-10-28T12:51:21.173Z,1017.1